createdAt,value
2023-03-31T00:03:38.670Z,6.10
2023-03-31T00:08:40.804Z,6.20
2023-03-31T00:13:42.658Z,6.10
2023-03-31T00:18:47.654Z,6.00
2023-03-31T00:23:50.621Z,5.90
2023-03-31T00:28:53.218Z,5.80
2023-03-31T00:33:55.784Z,5.70
2023-03-31T00:39:00.049Z,5.70
2023-03-31T00:44:24.379Z,5.80
2023-03-31T00:49:40.702Z,5.80
2023-03-31T00:54:45.816Z,5.70
2023-03-31T00:59:51.441Z,5.70
2023-03-31T01:04:57.458Z,5.70
2023-03-31T01:10:02.042Z,5.60
2023-03-31T01:15:04.905Z,5.50
2023-03-31T01:20:24.412Z,5.50
2023-03-31T01:26:04.540Z,5.50
2023-03-31T01:31:37.414Z,5.50
2023-03-31T01:37:01.429Z,5.50
2023-03-31T01:42:03.953Z,5.50
2023-03-31T01:47:18.098Z,5.40
2023-03-31T01:52:28.059Z,5.40
2023-03-31T01:57:41.539Z,5.30
2023-03-31T02:03:21.784Z,5.30
2023-03-31T02:08:31.885Z,5.30
2023-03-31T02:13:38.431Z,5.30
2023-03-31T02:18:41.778Z,5.30
2023-03-31T02:23:45.726Z,5.20
2023-03-31T02:28:47.738Z,5.20
2023-03-31T02:33:49.946Z,5.10
2023-03-31T02:39:07.048Z,5.00
2023-03-31T02:44:10.588Z,5.00
2023-03-31T02:49:15.235Z,5.10
2023-03-31T02:54:42.872Z,5.10
2023-03-31T03:00:06.803Z,5.20
2023-03-31T03:06:01.329Z,5.20
2023-03-31T03:11:39.222Z,5.30
2023-03-31T03:16:48.854Z,5.40
2023-03-31T03:21:50.905Z,5.50
2023-03-31T03:26:52.956Z,5.50
2023-03-31T03:31:54.789Z,5.50
2023-03-31T03:36:56.571Z,5.60
2023-03-31T03:41:58.547Z,5.60
2023-03-31T03:47:00.351Z,5.60
2023-03-31T03:52:02.363Z,5.70
2023-03-31T03:57:04.228Z,5.80
2023-03-31T04:02:06.108Z,5.80
2023-03-31T04:07:07.918Z,5.90
2023-03-31T04:12:09.700Z,6.00
2023-03-31T04:17:15.611Z,6.00
2023-03-31T04:22:20.563Z,6.00
2023-03-31T04:27:23.018Z,6.00
2023-03-31T04:32:24.820Z,6.00
2023-03-31T04:37:28.115Z,6.00
2023-03-31T04:42:29.927Z,6.10
2023-03-31T04:47:31.827Z,6.10
2023-03-31T04:52:33.612Z,6.20
2023-03-31T04:57:35.369Z,6.20
2023-03-31T05:02:37.259Z,6.30
2023-03-31T05:07:39.771Z,6.30
2023-03-31T05:12:41.628Z,6.30
2023-03-31T05:17:43.668Z,6.40
2023-03-31T05:22:46.655Z,6.50
2023-03-31T05:27:49.969Z,6.50
2023-03-31T05:32:52.350Z,6.60
2023-03-31T05:37:54.215Z,6.60
2023-03-31T05:42:56.067Z,6.70
2023-03-31T05:47:57.879Z,6.70
2023-03-31T05:52:59.792Z,6.80
2023-03-31T05:58:01.696Z,6.80
2023-03-31T06:03:03.872Z,6.80
2023-03-31T06:08:05.967Z,6.80
2023-03-31T06:13:07.792Z,6.90
2023-03-31T06:18:10.772Z,6.90
2023-03-31T06:23:12.593Z,6.90
2023-03-31T06:28:14.855Z,6.90
2023-03-31T06:33:16.669Z,7.00
2023-03-31T06:38:18.478Z,7.00
2023-03-31T06:43:20.905Z,7.10
2023-03-31T06:48:23.742Z,7.10
2023-03-31T06:53:25.762Z,7.20
2023-03-31T06:58:30.604Z,7.20
2023-03-31T07:03:34.074Z,7.20
2023-03-31T07:08:36.222Z,7.20
2023-03-31T07:13:38.044Z,7.20
2023-03-31T07:18:42.000Z,7.20
2023-03-31T07:23:43.883Z,7.30
2023-03-31T07:28:45.716Z,7.30
2023-03-31T07:33:47.505Z,7.30
2023-03-31T07:38:49.726Z,7.30
2023-03-31T07:43:51.720Z,7.40
2023-03-31T07:48:56.320Z,7.40
2023-03-31T07:53:58.040Z,7.50
2023-03-31T07:58:59.792Z,7.50
2023-03-31T08:04:02.174Z,7.50
2023-03-31T08:09:05.168Z,7.60
2023-03-31T08:14:07.663Z,7.60
2023-03-31T08:19:09.789Z,7.60
2023-03-31T08:24:11.550Z,7.60
2023-03-31T08:29:13.453Z,7.70
2023-03-31T08:34:15.426Z,7.70
2023-03-31T08:39:17.194Z,7.80
2023-03-31T08:44:34.571Z,7.80
2023-03-31T08:49:47.466Z,7.80
2023-03-31T08:54:52.979Z,7.90
2023-03-31T08:59:58.344Z,7.90
2023-03-31T09:05:23.220Z,7.80
2023-03-31T09:10:52.099Z,7.80
2023-03-31T09:16:19.651Z,7.70
2023-03-31T09:21:34.953Z,7.80
2023-03-31T09:26:44.930Z,7.80
2023-03-31T09:31:47.398Z,7.80
2023-03-31T09:36:49.394Z,7.90
2023-03-31T09:41:53.962Z,7.90
2023-03-31T09:46:56.689Z,8.00
2023-03-31T09:52:15.545Z,8.10
2023-03-31T09:57:39.684Z,8.10
2023-03-31T10:02:45.646Z,8.10
2023-03-31T10:07:47.782Z,8.20
2023-03-31T10:12:53.194Z,8.40
2023-03-31T10:17:58.596Z,8.40
2023-03-31T10:23:06.962Z,8.50
2023-03-31T10:28:12.491Z,8.60
2023-03-31T10:33:23.194Z,8.70
2023-03-31T10:38:37.158Z,9.10
2023-03-31T10:43:47.915Z,9.90
2023-03-31T10:48:51.527Z,10.70
2023-03-31T10:54:03.296Z,11.10
2023-03-31T10:59:11.216Z,11.30
2023-03-31T11:04:18.765Z,11.60
2023-03-31T11:09:42.343Z,12.10
2023-03-31T11:14:54.634Z,12.10
2023-03-31T11:20:16.839Z,12.30
2023-03-31T11:25:31.923Z,12.50
2023-03-31T11:30:51.219Z,12.40
2023-03-31T11:36:26.121Z,12.50
2023-03-31T11:41:39.688Z,12.30
2023-03-31T11:46:57.332Z,12.00
2023-03-31T11:52:01.246Z,11.70
2023-03-31T11:57:12.625Z,11.50
2023-03-31T12:02:19.484Z,11.40
2023-03-31T12:07:36.310Z,11.30
2023-03-31T12:12:51.667Z,11.60
2023-03-31T12:18:03.093Z,12.00
2023-03-31T12:23:11.751Z,12.20
2023-03-31T12:28:14.195Z,12.50
2023-03-31T12:33:32.790Z,12.70
2023-03-31T12:38:55.591Z,12.70
2023-03-31T12:44:16.242Z,12.70
2023-03-31T12:49:26.174Z,12.60
2023-03-31T12:54:40.053Z,12.60
2023-03-31T12:59:44.571Z,12.60
2023-03-31T13:04:46.320Z,12.60
2023-03-31T13:09:53.048Z,12.60
2023-03-31T13:15:00.102Z,12.70
2023-03-31T13:20:37.814Z,13.10
2023-03-31T13:25:44.098Z,13.50
2023-03-31T13:30:46.672Z,13.80
2023-03-31T13:35:54.014Z,14.20
2023-03-31T13:41:41.547Z,14.50
2023-03-31T13:46:51.165Z,14.40
2023-03-31T13:52:03.196Z,14.30
2023-03-31T13:57:23.485Z,13.90
2023-03-31T14:02:47.670Z,13.60
2023-03-31T14:07:55.715Z,13.60
2023-03-31T14:13:06.694Z,13.30
2023-03-31T14:18:13.812Z,13.10
2023-03-31T14:23:27.611Z,12.90
2023-03-31T14:28:48.347Z,12.50
2023-03-31T14:34:12.682Z,11.90
2023-03-31T14:39:21.678Z,11.20
2023-03-31T14:44:25.214Z,10.80
2023-03-31T14:49:36.836Z,10.80
2023-03-31T14:54:38.710Z,10.90
2023-03-31T14:59:40.908Z,10.90
2023-03-31T15:04:46.506Z,10.90
2023-03-31T15:09:51.026Z,11.00
2023-03-31T15:14:57.283Z,10.80
2023-03-31T15:20:00.919Z,10.70
2023-03-31T15:25:02.781Z,10.70
2023-03-31T15:30:07.684Z,10.70
2023-03-31T15:35:25.754Z,10.70
2023-03-31T15:40:29.860Z,10.70
2023-03-31T15:45:44.859Z,10.60
2023-03-31T15:50:46.802Z,10.50
2023-03-31T15:55:48.706Z,10.50
2023-03-31T16:00:54.476Z,10.50
2023-03-31T16:05:58.867Z,10.50
2023-03-31T16:11:07.415Z,10.50
2023-03-31T16:16:13.067Z,10.50
2023-03-31T16:21:25.516Z,10.40
2023-03-31T16:26:28.882Z,10.30
2023-03-31T16:31:34.476Z,10.30
2023-03-31T16:36:36.718Z,10.20
2023-03-31T16:41:38.698Z,10.10
2023-03-31T16:46:40.527Z,10.00
2023-03-31T16:51:42.290Z,9.90
2023-03-31T16:56:44.172Z,9.80
2023-03-31T17:01:46.291Z,9.80
2023-03-31T17:06:48.038Z,9.80
2023-03-31T17:11:49.847Z,9.70
2023-03-31T17:16:52.734Z,9.60
2023-03-31T17:21:55.087Z,9.60
2023-03-31T17:26:57.596Z,9.50
2023-03-31T17:31:59.499Z,9.40
2023-03-31T17:37:02.351Z,9.40
2023-03-31T17:42:04.382Z,9.40
2023-03-31T17:47:06.841Z,9.30
2023-03-31T17:52:08.679Z,9.10
2023-03-31T17:57:10.460Z,9.00
2023-03-31T18:02:16.136Z,8.80
2023-03-31T18:07:18.504Z,8.70
2023-03-31T18:12:20.317Z,8.50
2023-03-31T18:17:22.120Z,8.40
2023-03-31T18:22:23.877Z,8.30
2023-03-31T18:27:25.596Z,8.20
2023-03-31T18:32:27.622Z,8.20
2023-03-31T18:37:29.594Z,8.20
2023-03-31T18:42:31.486Z,8.20
2023-03-31T18:47:33.344Z,8.20
2023-03-31T18:52:36.208Z,8.30
2023-03-31T18:57:38.087Z,8.30
2023-03-31T19:02:40.015Z,8.20
2023-03-31T19:07:42.213Z,8.20
2023-03-31T19:12:49.829Z,8.20
2023-03-31T19:17:51.820Z,8.20
2023-03-31T19:22:53.684Z,8.20
2023-03-31T19:27:55.481Z,8.30
2023-03-31T19:33:01.747Z,8.20
2023-03-31T19:38:03.803Z,8.30
2023-03-31T19:43:05.866Z,8.30
2023-03-31T19:48:07.995Z,8.30
2023-03-31T19:53:09.875Z,8.30
2023-03-31T19:58:11.709Z,8.20
2023-03-31T20:03:13.565Z,8.20
2023-03-31T20:08:15.822Z,8.20
2023-03-31T20:13:18.356Z,8.20
2023-03-31T20:18:20.539Z,8.20
2023-03-31T20:23:22.314Z,8.30
2023-03-31T20:28:24.071Z,8.20
2023-03-31T20:33:26.248Z,8.20
2023-03-31T20:38:28.304Z,8.20
2023-03-31T20:43:30.107Z,8.20
2023-03-31T20:48:36.037Z,8.20
2023-03-31T20:53:44.232Z,8.10
2023-03-31T20:58:47.368Z,8.10
2023-03-31T21:03:50.144Z,8.10
2023-03-31T21:08:53.416Z,8.10
2023-03-31T21:13:55.278Z,8.10
2023-03-31T21:18:59.188Z,8.10
2023-03-31T21:24:01.075Z,8.10
2023-03-31T21:29:02.937Z,8.10
2023-03-31T21:34:05.282Z,8.10
2023-03-31T21:39:07.841Z,8.10
2023-03-31T21:44:10.037Z,8.10
2023-03-31T21:49:11.905Z,8.10
2023-03-31T21:54:13.741Z,8.10
2023-03-31T21:59:15.737Z,8.00
2023-03-31T22:04:17.559Z,8.00
2023-03-31T22:09:19.390Z,7.90
2023-03-31T22:14:21.645Z,7.90
2023-03-31T22:19:23.613Z,8.00
2023-03-31T22:24:25.664Z,8.00
2023-03-31T22:29:27.470Z,7.90
2023-03-31T22:34:29.393Z,8.00
2023-03-31T22:39:31.222Z,8.00
2023-03-31T22:44:35.409Z,7.90
2023-03-31T22:49:37.228Z,7.90
2023-03-31T22:54:40.935Z,7.90
2023-03-31T22:59:42.968Z,7.90
2023-03-31T23:04:44.714Z,7.80
2023-03-31T23:09:46.502Z,7.80
2023-03-31T23:14:48.243Z,7.80
2023-03-31T23:19:50.395Z,7.70
2023-03-31T23:24:52.502Z,7.70
2023-03-31T23:29:54.274Z,7.70
2023-03-31T23:34:56.357Z,7.70
2023-03-31T23:39:58.153Z,7.60
2023-03-31T23:44:59.890Z,7.60
2023-03-31T23:50:01.642Z,7.60
2023-03-31T23:55:04.481Z,7.60
